Time;durP1;ratioP1;P1;durP2;ratioP2;P2;SDS_P1;SDS_P2;PMS_P1;PMS_P2;Temp;Humidity;BMP_temperature;BMP_pressure;BME280_temperature;BME280_humidity;BME280_pressure;Samples;Min_cycle;Max_cycle;Signal;HPM_P1;HPM_P2
2021/06/29 00:05:13;;;;;;;5.80;5.37;;;;;;;;;;5013388;28;20462;-73
2021/06/29 00:07:39;;;;;;;7.47;6.87;;;;;;;;;;5006664;28;20503;-71
2021/06/29 00:10:07;;;;;;;8.13;7.33;;;;;;;;;;5012989;28;20455;-72
2021/06/29 00:12:33;;;;;;;7.90;7.20;;;;;;;;;;5013310;28;20432;-70
2021/06/29 00:14:59;;;;;;;10.53;7.77;;;;;;;;;;5012947;28;20409;-73
2021/06/29 00:17:25;;;;;;;9.40;7.33;;;;;;;;;;5013031;28;20435;-71
2021/06/29 00:19:51;;;;;;;7.70;7.10;;;;;;;;;;5012968;28;20974;-72
2021/06/29 00:22:17;;;;;;;6.97;6.37;;;;;;;;;;5013135;28;20417;-72
2021/06/29 00:24:43;;;;;;;6.97;6.37;;;;;;;;;;5012867;28;20428;-73
2021/06/29 00:27:09;;;;;;;7.60;7.00;;;;;;;;;;5011566;28;20539;-71
2021/06/29 00:29:35;;;;;;;6.27;5.67;;;;;;;;;;5012593;28;20487;-73
2021/06/29 00:35:05;;;;;;;6.13;5.57;;;;;;;;;;5013045;28;20509;-72
2021/06/29 00:37:31;;;;;;;6.03;5.60;;;;;;;;;;5012822;28;20421;-73
2021/06/29 00:39:57;;;;;;;5.90;5.40;;;;;;;;;;5011523;28;20837;-71
2021/06/29 00:42:23;;;;;;;6.10;5.50;;;;;;;;;;5012787;28;20892;-71
2021/06/29 00:44:50;;;;;;;5.90;5.40;;;;;;;;;;5012913;28;20417;-71
2021/06/29 00:50:19;;;;;;;5.63;5.17;;;;;;;;;;5013046;28;20415;-73
2021/06/29 00:52:45;;;;;;;5.50;5.10;;;;;;;;;;5012718;28;20496;-72
2021/06/29 00:55:13;;;;;;;7.20;6.57;;;;;;;;;;5012700;28;20424;-72
2021/06/29 00:57:40;;;;;;;7.67;6.30;;;;;;;;;;5012451;28;20428;-74
2021/06/29 01:00:06;;;;;;;6.50;5.90;;;;;;;;;;5011878;28;20996;-72
2021/06/29 01:05:36;;;;;;;6.00;5.43;;;;;;;;;;5012490;28;20973;-71
2021/06/29 01:08:02;;;;;;;5.70;5.13;;;;;;;;;;5012408;28;20499;-71
2021/06/29 01:10:28;;;;;;;6.57;5.50;;;;;;;;;;5012399;28;20413;-72
2021/06/29 01:12:54;;;;;;;6.43;5.80;;;;;;;;;;5012389;28;21000;-72
2021/06/29 01:15:23;;;;;;;5.27;4.87;;;;;;;;;;5012355;28;20773;-71
2021/06/29 01:17:49;;;;;;;5.10;4.70;;;;;;;;;;5011638;28;20417;-75
2021/06/29 01:20:20;;;;;;;6.07;5.50;;;;;;;;;;5012275;28;20998;-72
2021/06/29 01:22:50;;;;;;;5.63;4.73;;;;;;;;;;5012301;28;20414;-73
2021/06/29 01:25:16;;;;;;;5.10;4.70;;;;;;;;;;5012091;28;20429;-73
2021/06/29 01:35:42;;;;;;;5.07;4.67;;;;;;;;;;5012136;28;20404;-75
2021/06/29 01:38:15;;;;;;;4.50;4.10;;;;;;;;;;5012071;28;20413;-72
2021/06/29 01:40:41;;;;;;;3.17;2.80;;;;;;;;;;5012445;28;20971;-72
2021/06/29 01:43:07;;;;;;;3.43;3.13;;;;;;;;;;5012341;28;20499;-71
2021/06/29 01:45:33;;;;;;;3.60;3.30;;;;;;;;;;5012038;28;20413;-73
2021/06/29 01:48:02;;;;;;;3.90;3.60;;;;;;;;;;5012101;28;20428;-73
2021/06/29 01:50:28;;;;;;;3.57;3.37;;;;;;;;;;5012086;28;20486;-72
2021/06/29 01:52:55;;;;;;;4.33;3.93;;;;;;;;;;5012010;28;20417;-73
2021/06/29 01:55:21;;;;;;;7.57;4.90;;;;;;;;;;5012230;28;20411;-71
2021/06/29 01:57:49;;;;;;;4.13;3.73;;;;;;;;;;5011558;28;20425;-72
2021/06/29 02:00:15;;;;;;;4.57;4.20;;;;;;;;;;5011608;28;20479;-73
2021/06/29 02:05:45;;;;;;;3.40;3.17;;;;;;;;;;5012003;28;20787;-73
2021/06/29 02:08:11;;;;;;;4.40;4.10;;;;;;;;;;5010414;28;20528;-72
2021/06/29 02:10:37;;;;;;;4.63;3.30;;;;;;;;;;5011975;28;20852;-73
2021/06/29 02:13:03;;;;;;;4.00;3.70;;;;;;;;;;5011826;28;20896;-73
2021/06/29 02:15:29;;;;;;;4.70;3.57;;;;;;;;;;5011704;28;20413;-73
2021/06/29 02:20:59;;;;;;;4.13;3.37;;;;;;;;;;5010969;28;20498;-73
2021/06/29 02:23:25;;;;;;;3.40;3.10;;;;;;;;;;5010393;28;20429;-73
2021/06/29 02:25:52;;;;;;;4.40;4.00;;;;;;;;;;5010820;28;20775;-71
2021/06/29 02:28:18;;;;;;;3.90;3.60;;;;;;;;;;5012089;28;20404;-73
2021/06/29 02:30:44;;;;;;;3.23;3.03;;;;;;;;;;5014372;28;20942;-71
2021/06/29 02:36:14;;;;;;;3.40;2.90;;;;;;;;;;5014879;28;20447;-71
2021/06/29 02:38:39;;;;;;;4.10;3.70;;;;;;;;;;5015037;28;20866;-73
2021/06/29 02:41:06;;;;;;;3.73;3.43;;;;;;;;;;5014998;28;20479;-72
2021/06/29 02:43:32;;;;;;;3.50;3.30;;;;;;;;;;5015111;28;20424;-73
2021/06/29 02:45:58;;;;;;;4.37;3.97;;;;;;;;;;5013511;28;20964;-71
2021/06/29 02:51:28;;;;;;;4.83;3.80;;;;;;;;;;5014847;28;20428;-72
2021/06/29 02:53:54;;;;;;;4.40;4.00;;;;;;;;;;5014803;28;20853;-72
2021/06/29 02:56:39;;;;;;;3.80;3.50;;;;;;;;;;5014733;28;20927;-72
2021/06/29 02:59:06;;;;;;;4.33;3.93;;;;;;;;;;5014783;28;20476;-73
2021/06/29 03:01:36;;;;;;;3.70;3.40;;;;;;;;;;5014802;28;20880;-72
2021/06/29 03:04:02;;;;;;;4.43;4.03;;;;;;;;;;5014708;28;20425;-71
2021/06/29 03:06:28;;;;;;;4.40;3.73;;;;;;;;;;5014635;28;20500;-72
2021/06/29 03:08:54;;;;;;;3.50;3.20;;;;;;;;;;5014653;28;20451;-73
2021/06/29 03:11:20;;;;;;;4.80;4.13;;;;;;;;;;5014279;28;20425;-72
2021/06/29 03:13:46;;;;;;;3.87;3.57;;;;;;;;;;5014520;28;20417;-73
2021/06/29 03:16:12;;;;;;;5.80;3.83;;;;;;;;;;5014250;28;20753;-72
2021/06/29 03:21:42;;;;;;;3.20;3.00;;;;;;;;;;5014269;28;20416;-73
2021/06/29 03:24:08;;;;;;;3.60;3.40;;;;;;;;;;5014531;28;20496;-73
2021/06/29 03:26:34;;;;;;;4.47;4.07;;;;;;;;;;5014255;28;20471;-73
2021/06/29 03:29:00;;;;;;;4.53;4.13;;;;;;;;;;5014260;28;20463;-71
2021/06/29 03:31:26;;;;;;;3.80;3.50;;;;;;;;;;5012734;28;20433;-71
2021/06/29 03:33:52;;;;;;;4.03;3.63;;;;;;;;;;5014221;28;20789;-74
2021/06/29 03:36:18;;;;;;;4.80;4.40;;;;;;;;;;5014211;28;20412;-72
2021/06/29 03:38:44;;;;;;;4.53;4.13;;;;;;;;;;5013902;28;20564;-71
2021/06/29 03:41:10;;;;;;;3.90;3.60;;;;;;;;;;5013029;28;20449;-73
2021/06/29 03:43:37;;;;;;;4.67;4.37;;;;;;;;;;5014132;28;20455;-72
2021/06/29 03:46:05;;;;;;;9.93;4.30;;;;;;;;;;5013686;28;20417;-72
2021/06/29 03:51:34;;;;;;;6.23;4.50;;;;;;;;;;5013804;28;21042;-72
2021/06/29 03:54:00;;;;;;;5.17;4.77;;;;;;;;;;5013935;28;20435;-73
2021/06/29 03:56:30;;;;;;;4.30;4.00;;;;;;;;;;5013716;28;20412;-72
2021/06/29 03:59:01;;;;;;;4.83;4.40;;;;;;;;;;5013165;28;20464;-72
2021/06/29 04:01:28;;;;;;;4.10;3.70;;;;;;;;;;5013566;28;20408;-71
2021/06/29 04:06:57;;;;;;;4.07;3.77;;;;;;;;;;5013515;28;20436;-73
2021/06/29 04:09:23;;;;;;;4.60;4.30;;;;;;;;;;5013666;28;20424;-72
2021/06/29 04:11:49;;;;;;;4.33;4.03;;;;;;;;;;5013566;28;20904;-72
2021/06/29 04:14:15;;;;;;;4.57;4.10;;;;;;;;;;5005140;28;20412;-73
2021/06/29 04:16:42;;;;;;;4.77;4.37;;;;;;;;;;5013263;28;20459;-72
2021/06/29 04:22:11;;;;;;;6.13;3.77;;;;;;;;;;5013450;28;20414;-76
2021/06/29 04:24:37;;;;;;;4.50;4.10;;;;;;;;;;5013252;28;20787;-71
2021/06/29 04:27:04;;;;;;;3.83;3.50;;;;;;;;;;5013059;28;20508;-72
2021/06/29 04:29:30;;;;;;;3.90;3.53;;;;;;;;;;5012973;28;20530;-72
2021/06/29 04:31:56;;;;;;;4.37;3.87;;;;;;;;;;5013063;28;20413;-71
2021/06/29 04:34:22;;;;;;;3.60;3.30;;;;;;;;;;5012881;28;20416;-73
2021/06/29 04:36:48;;;;;;;3.80;3.50;;;;;;;;;;5012936;28;20486;-71
2021/06/29 04:39:14;;;;;;;3.73;3.50;;;;;;;;;;5012995;28;20555;-71
2021/06/29 04:41:40;;;;;;;4.80;4.17;;;;;;;;;;5013162;28;20420;-70
2021/06/29 04:44:07;;;;;;;5.27;4.10;;;;;;;;;;5010733;28;20421;-71
2021/06/29 04:46:33;;;;;;;3.50;3.27;;;;;;;;;;5013259;28;20417;-73
2021/06/29 04:52:02;;;;;;;3.53;3.33;;;;;;;;;;5012934;28;20798;-70
2021/06/29 04:54:29;;;;;;;3.07;2.87;;;;;;;;;;5013047;28;20424;-71
2021/06/29 04:56:55;;;;;;;3.80;3.50;;;;;;;;;;5012937;28;20500;-73
2021/06/29 04:59:21;;;;;;;3.37;3.17;;;;;;;;;;5012506;28;20556;-70
2021/06/29 05:01:47;;;;;;;6.83;3.60;;;;;;;;;;5012966;28;20971;-71
2021/06/29 05:07:16;;;;;;;6.13;3.57;;;;;;;;;;5012765;28;20765;-71
2021/06/29 05:09:42;;;;;;;5.20;3.63;;;;;;;;;;5012748;28;20405;-72
2021/06/29 05:12:09;;;;;;;5.83;4.20;;;;;;;;;;5012642;28;20421;-72
2021/06/29 05:14:35;;;;;;;4.27;3.87;;;;;;;;;;5012409;28;20504;-72
2021/06/29 05:17:01;;;;;;;3.80;3.50;;;;;;;;;;5012775;28;20452;-73
2021/06/29 05:22:30;;;;;;;4.33;3.93;;;;;;;;;;5012520;28;20938;-73
2021/06/29 05:24:56;;;;;;;4.43;3.77;;;;;;;;;;5012583;28;20405;-73
2021/06/29 05:27:22;;;;;;;4.03;3.60;;;;;;;;;;5012570;28;20783;-70
2021/06/29 05:29:48;;;;;;;4.03;3.73;;;;;;;;;;5012283;28;20457;-69
2021/06/29 05:32:14;;;;;;;4.03;3.50;;;;;;;;;;5012515;28;20420;-69
2021/06/29 05:37:44;;;;;;;4.83;4.43;;;;;;;;;;5012591;28;20787;-71
2021/06/29 05:40:10;;;;;;;3.77;3.47;;;;;;;;;;5012333;28;20571;-70
2021/06/29 05:42:36;;;;;;;4.20;3.80;;;;;;;;;;5012212;28;20425;-69
2021/06/29 05:45:03;;;;;;;4.20;3.90;;;;;;;;;;5011500;28;20412;-68
2021/06/29 05:47:31;;;;;;;5.60;5.10;;;;;;;;;;5012329;28;20958;-71
2021/06/29 05:53:01;;;;;;;5.23;4.47;;;;;;;;;;5010981;28;20415;-71
2021/06/29 05:55:27;;;;;;;4.60;4.00;;;;;;;;;;5011412;28;20417;-72
2021/06/29 05:57:53;;;;;;;3.17;2.97;;;;;;;;;;5011316;28;20440;-71
2021/06/29 06:00:19;;;;;;;3.67;3.17;;;;;;;;;;4993543;28;20523;-71
2021/06/29 06:02:45;;;;;;;3.77;3.37;;;;;;;;;;5011822;28;20779;-72
2021/06/29 06:05:11;;;;;;;3.80;3.30;;;;;;;;;;5013584;28;20912;-70
2021/06/29 06:07:38;;;;;;;4.00;3.67;;;;;;;;;;5008849;28;20425;-71
2021/06/29 06:10:05;;;;;;;5.30;4.83;;;;;;;;;;5015059;28;20780;-71
2021/06/29 06:12:31;;;;;;;5.00;4.60;;;;;;;;;;5013999;28;20499;-71
2021/06/29 06:14:57;;;;;;;4.60;4.30;;;;;;;;;;5015117;28;20643;-81
2021/06/29 06:17:26;;;;;;;4.20;3.67;;;;;;;;;;5015998;28;20711;-71
2021/06/29 06:22:56;;;;;;;3.77;3.10;;;;;;;;;;5014747;28;20419;-72
2021/06/29 06:25:22;;;;;;;4.23;3.93;;;;;;;;;;5014018;28;20417;-71
2021/06/29 06:27:48;;;;;;;3.47;3.17;;;;;;;;;;5011658;28;20452;-70
2021/06/29 06:30:14;;;;;;;3.80;3.50;;;;;;;;;;5013806;28;20831;-72
2021/06/29 06:32:40;;;;;;;3.27;3.07;;;;;;;;;;5013435;28;20510;-72
2021/06/29 06:38:10;;;;;;;3.20;2.83;;;;;;;;;;5013850;28;20463;-72
2021/06/29 06:40:36;;;;;;;3.73;3.53;;;;;;;;;;5014361;28;20819;-72
2021/06/29 06:43:02;;;;;;;3.10;2.90;;;;;;;;;;5014276;28;20428;-71
2021/06/29 06:45:28;;;;;;;3.13;2.93;;;;;;;;;;5010290;28;20895;-71
2021/06/29 06:47:54;;;;;;;3.17;2.97;;;;;;;;;;5014303;28;20432;-71
2021/06/29 06:53:24;;;;;;;2.80;2.40;;;;;;;;;;5012969;28;20528;-70
2021/06/29 06:55:50;;;;;;;2.53;2.33;;;;;;;;;;5009216;28;20507;-73
2021/06/29 06:58:16;;;;;;;2.97;2.77;;;;;;;;;;5011224;28;20502;-72
2021/06/29 07:00:42;;;;;;;2.73;1.80;;;;;;;;;;5013645;28;20464;-77
2021/06/29 07:03:08;;;;;;;2.40;2.20;;;;;;;;;;5013902;28;20430;-76
2021/06/29 07:08:38;;;;;;;4.77;2.23;;;;;;;;;;5013444;28;20494;-76
2021/06/29 07:11:04;;;;;;;2.50;2.30;;;;;;;;;;5011706;28;20948;-75
2021/06/29 07:13:30;;;;;;;2.33;2.17;;;;;;;;;;5012202;28;20424;-76
2021/06/29 07:15:56;;;;;;;3.30;2.10;;;;;;;;;;5012039;28;20452;-76
2021/06/29 07:18:22;;;;;;;2.50;2.30;;;;;;;;;;5013236;28;20421;-77
2021/06/29 07:23:52;;;;;;;1.87;1.77;;;;;;;;;;5013536;28;20435;-77
2021/06/29 07:26:18;;;;;;;2.80;2.07;;;;;;;;;;5012937;28;20409;-77
2021/06/29 07:28:44;;;;;;;1.40;1.30;;;;;;;;;;5012344;28;20511;-76
2021/06/29 07:31:10;;;;;;;1.57;1.47;;;;;;;;;;5012565;28;20505;-75
2021/06/29 07:33:36;;;;;;;1.63;1.50;;;;;;;;;;5013012;28;20413;-77
2021/06/29 07:39:06;;;;;;;1.60;1.50;;;;;;;;;;5012659;28;20547;-77
2021/06/29 07:41:33;;;;;;;1.73;1.63;;;;;;;;;;5012761;28;20777;-76
2021/06/29 07:43:59;;;;;;;2.13;1.60;;;;;;;;;;5012661;28;20424;-77
2021/06/29 07:46:26;;;;;;;1.80;1.70;;;;;;;;;;5011008;28;20472;-76
2021/06/29 07:48:52;;;;;;;1.50;1.40;;;;;;;;;;5012507;28;20527;-77
2021/06/29 07:54:22;;;;;;;1.80;1.53;;;;;;;;;;5012333;28;20980;-77
2021/06/29 07:56:48;;;;;;;2.10;2.00;;;;;;;;;;5012190;28;20923;-78
2021/06/29 07:59:14;;;;;;;1.77;1.67;;;;;;;;;;5012388;28;20619;-78
2021/06/29 08:01:40;;;;;;;2.00;1.90;;;;;;;;;;5011873;28;20988;-75
2021/06/29 08:04:06;;;;;;;2.63;2.23;;;;;;;;;;5012318;28;20428;-76
2021/06/29 08:06:33;;;;;;;2.10;1.90;;;;;;;;;;5012223;28;20416;-75
2021/06/29 08:08:59;;;;;;;2.20;2.10;;;;;;;;;;5011822;28;20432;-76
2021/06/29 08:11:25;;;;;;;2.00;1.80;;;;;;;;;;5012068;28;20421;-75
2021/06/29 08:13:51;;;;;;;3.80;1.90;;;;;;;;;;5011995;28;20709;-76
2021/06/29 08:16:17;;;;;;;1.80;1.70;;;;;;;;;;5011988;28;20508;-77
2021/06/29 08:18:43;;;;;;;1.87;1.77;;;;;;;;;;5011941;28;20488;-77
2021/06/29 08:24:13;;;;;;;2.00;1.90;;;;;;;;;;5012148;28;20773;-76
2021/06/29 08:26:39;;;;;;;2.00;1.80;;;;;;;;;;5011975;28;20821;-76
2021/06/29 08:29:05;;;;;;;1.50;1.40;;;;;;;;;;5011467;28;20947;-77
2021/06/29 08:31:31;;;;;;;1.90;1.60;;;;;;;;;;5011516;28;20447;-76
2021/06/29 08:33:57;;;;;;;1.70;1.60;;;;;;;;;;5011082;28;20424;-75
2021/06/29 08:39:27;;;;;;;1.80;1.70;;;;;;;;;;5010290;28;20514;-77
2021/06/29 08:41:53;;;;;;;2.00;1.90;;;;;;;;;;5011111;28;20429;-75
2021/06/29 08:44:20;;;;;;;2.10;2.00;;;;;;;;;;4972772;28;20794;-76
2021/06/29 08:46:46;;;;;;;1.40;1.30;;;;;;;;;;5006672;28;20507;-75
2021/06/29 08:49:12;;;;;;;1.30;1.20;;;;;;;;;;5011315;28;20420;-77
2021/06/29 08:54:42;;;;;;;1.50;1.40;;;;;;;;;;5010512;28;20466;-75
2021/06/29 08:57:08;;;;;;;1.20;1.10;;;;;;;;;;5010912;28;20508;-73
2021/06/29 08:59:34;;;;;;;1.73;1.50;;;;;;;;;;5011050;28;20511;-75
2021/06/29 09:02:02;;;;;;;1.73;1.63;;;;;;;;;;5010468;28;20421;-75
2021/06/29 09:10:37;;;;;;;1.50;1.40;;;;;;;;;;5012179;28;20463;-77
2021/06/29 09:13:04;;;;;;;1.40;1.30;;;;;;;;;;4993572;28;20449;-75
2021/06/29 09:15:40;;;;;;;1.50;1.40;;;;;;;;;;5011221;28;20420;-76
2021/06/29 09:18:06;;;;;;;2.03;1.60;;;;;;;;;;5010637;28;20426;-75
2021/06/29 09:20:33;;;;;;;1.70;1.60;;;;;;;;;;4992111;28;20484;-74
2021/06/29 09:23:08;;;;;;;1.73;1.63;;;;;;;;;;5010007;28;20405;-77
2021/06/29 09:25:34;;;;;;;1.63;1.53;;;;;;;;;;5012335;28;20424;-79
2021/06/29 09:28:00;;;;;;;3.50;2.07;;;;;;;;;;5011517;28;20440;-80
2021/06/29 09:30:26;;;;;;;1.63;1.50;;;;;;;;;;5011319;28;20464;-75
2021/06/29 09:32:53;;;;;;;2.60;1.53;;;;;;;;;;5011598;28;20416;-78
2021/06/29 09:35:19;;;;;;;1.70;1.30;;;;;;;;;;5009871;28;20440;-76
2021/06/29 09:37:46;;;;;;;1.53;1.43;;;;;;;;;;5011065;28;20408;-73
2021/06/29 09:40:13;;;;;;;1.53;1.43;;;;;;;;;;5012862;28;20498;-74
2021/06/29 09:42:39;;;;;;;3.97;1.50;;;;;;;;;;5014656;28;20405;-73
2021/06/29 09:45:25;;;;;;;1.73;1.63;;;;;;;;;;5014828;28;20413;-73
2021/06/29 09:47:51;;;;;;;2.23;1.50;;;;;;;;;;5014390;28;20803;-74
2021/06/29 09:50:37;;;;;;;1.70;1.60;;;;;;;;;;5014658;28;20424;-73
2021/06/29 09:53:12;;;;;;;1.60;1.50;;;;;;;;;;5014595;28;20413;-73
2021/06/29 09:55:38;;;;;;;1.73;1.57;;;;;;;;;;4996882;28;20428;-73
2021/06/29 09:58:11;;;;;;;2.13;1.40;;;;;;;;;;5013147;28;20576;-73
2021/06/29 10:00:43;;;;;;;2.10;1.67;;;;;;;;;;4996134;28;20480;-74
2021/06/29 10:03:39;;;;;;;1.33;1.23;;;;;;;;;;5014115;28;20408;-74
2021/06/29 10:06:16;;;;;;;1.57;1.40;;;;;;;;;;4980412;28;20912;-74
2021/06/29 10:08:43;;;;;;;2.03;1.93;;;;;;;;;;5014462;28;20425;-73
2021/06/29 10:11:13;;;;;;;1.60;1.50;;;;;;;;;;5014216;28;20416;-73
2021/06/29 10:13:41;;;;;;;2.03;1.60;;;;;;;;;;5014600;28;20444;-72
2021/06/29 10:16:08;;;;;;;1.70;1.60;;;;;;;;;;5013903;28;20960;-73
2021/06/29 10:18:40;;;;;;;3.20;2.40;;;;;;;;;;5013404;28;20933;-72
2021/06/29 10:21:22;;;;;;;2.03;1.80;;;;;;;;;;5013240;28;20427;-75
2021/06/29 10:23:49;;;;;;;2.43;1.77;;;;;;;;;;5013731;28;20413;-73
2021/06/29 10:26:16;;;;;;;3.83;1.63;;;;;;;;;;5012463;28;20421;-74
2021/06/29 10:28:42;;;;;;;2.67;1.63;;;;;;;;;;5014008;28;20413;-74
2021/06/29 10:31:10;;;;;;;1.83;1.73;;;;;;;;;;5012141;28;20485;-73
2021/06/29 10:33:36;;;;;;;3.13;1.77;;;;;;;;;;5014181;28;20425;-72
2021/06/29 10:36:03;;;;;;;1.57;1.47;;;;;;;;;;5013607;28;20495;-73
2021/06/29 10:38:29;;;;;;;1.67;1.53;;;;;;;;;;5013616;28;20423;-74
2021/06/29 10:40:55;;;;;;;1.67;1.53;;;;;;;;;;5013278;28;20438;-74
2021/06/29 10:43:22;;;;;;;2.20;2.00;;;;;;;;;;5013557;28;20416;-74
2021/06/29 10:45:52;;;;;;;1.93;1.83;;;;;;;;;;5012130;28;20464;-73
2021/06/29 10:48:19;;;;;;;1.57;1.47;;;;;;;;;;5012323;28;20485;-73
2021/06/29 10:56:53;;;;;;;2.13;1.80;;;;;;;;;;5012325;28;20574;-74
2021/06/29 10:59:31;;;;;;;2.37;2.00;;;;;;;;;;5012540;28;20534;-73
2021/06/29 11:01:57;;;;;;;3.10;1.93;;;;;;;;;;5011230;28;20424;-73
2021/06/29 11:04:42;;;;;;;2.10;1.90;;;;;;;;;;5012849;28;20842;-74
2021/06/29 11:07:26;;;;;;;1.70;1.60;;;;;;;;;;5012636;28;20479;-74
2021/06/29 11:09:53;;;;;;;4.13;2.27;;;;;;;;;;5012848;28;20421;-74
2021/06/29 11:12:21;;;;;;;2.00;1.90;;;;;;;;;;5011960;28;20433;-74
2021/06/29 11:14:48;;;;;;;1.87;1.67;;;;;;;;;;5011833;28;20453;-72
2021/06/29 11:17:15;;;;;;;1.60;1.50;;;;;;;;;;5012178;28;20428;-74
2021/06/29 11:20:01;;;;;;;3.23;1.70;;;;;;;;;;5006451;28;20563;-72
2021/06/29 11:22:46;;;;;;;1.80;1.70;;;;;;;;;;5005780;28;20445;-75
2021/06/29 11:25:12;;;;;;;1.90;1.80;;;;;;;;;;5011544;28;20416;-77
2021/06/29 11:27:56;;;;;;;1.80;1.70;;;;;;;;;;5012748;28;20444;-77
2021/06/29 11:30:41;;;;;;;2.10;1.37;;;;;;;;;;5013000;28;20483;-76
2021/06/29 11:33:26;;;;;;;3.40;2.20;;;;;;;;;;5012516;28;20420;-76
2021/06/29 11:35:52;;;;;;;1.60;1.50;;;;;;;;;;5012443;28;20424;-75
2021/06/29 11:38:30;;;;;;;5.87;1.67;;;;;;;;;;5012662;28;20413;-75
2021/06/29 11:40:57;;;;;;;1.70;1.60;;;;;;;;;;5010403;28;20452;-74
2021/06/29 11:43:28;;;;;;;1.50;1.40;;;;;;;;;;5012632;28;20515;-75
2021/06/29 11:45:54;;;;;;;1.60;1.30;;;;;;;;;;5012658;28;20511;-75
2021/06/29 11:48:40;;;;;;;5.47;1.77;;;;;;;;;;5012505;28;20429;-75
2021/06/29 11:51:06;;;;;;;1.73;1.63;;;;;;;;;;5012516;28;20432;-75
2021/06/29 11:53:32;;;;;;;2.33;1.67;;;;;;;;;;5012081;28;20417;-76
2021/06/29 11:55:58;;;;;;;1.40;1.30;;;;;;;;;;5012306;28;20474;-75
2021/06/29 11:58:24;;;;;;;1.83;1.73;;;;;;;;;;5012283;28;20417;-75
2021/06/29 12:00:50;;;;;;;1.67;1.57;;;;;;;;;;5012020;28;20642;-75
2021/06/29 12:03:19;;;;;;;2.13;1.60;;;;;;;;;;5011411;28;20405;-76
2021/06/29 12:05:45;;;;;;;3.47;1.67;;;;;;;;;;5012276;28;20421;-75
2021/06/29 12:08:12;;;;;;;1.70;1.60;;;;;;;;;;5011978;28;20420;-74
2021/06/29 12:10:41;;;;;;;1.70;1.60;;;;;;;;;;5012210;28;20459;-76
2021/06/29 12:13:12;;;;;;;2.30;1.37;;;;;;;;;;5011928;28;20413;-75
2021/06/29 12:15:43;;;;;;;2.00;1.60;;;;;;;;;;5011732;28;20413;-75
2021/06/29 12:18:16;;;;;;;2.13;1.50;;;;;;;;;;5011907;28;21071;-75
2021/06/29 12:20:42;;;;;;;1.33;1.23;;;;;;;;;;5012023;28;20510;-75
2021/06/29 12:23:11;;;;;;;2.10;1.63;;;;;;;;;;5011746;28;20829;-74
2021/06/29 12:25:41;;;;;;;1.83;1.60;;;;;;;;;;5011375;28;20448;-76
2021/06/29 12:28:11;;;;;;;1.57;1.47;;;;;;;;;;5011458;28;20412;-76
2021/06/29 12:30:37;;;;;;;1.87;1.70;;;;;;;;;;5005015;28;20512;-72
2021/06/29 12:33:13;;;;;;;2.33;1.60;;;;;;;;;;5011614;28;20421;-75
2021/06/29 12:35:40;;;;;;;1.90;1.80;;;;;;;;;;5011329;28;20907;-74
2021/06/29 12:38:07;;;;;;;2.10;1.90;;;;;;;;;;5011490;28;20771;-73
2021/06/29 12:40:34;;;;;;;1.60;1.50;;;;;;;;;;5011275;28;20951;-76
2021/06/29 12:43:00;;;;;;;1.93;1.27;;;;;;;;;;5011081;28;20416;-74
2021/06/29 12:45:30;;;;;;;1.60;1.50;;;;;;;;;;5011530;28;20428;-75
2021/06/29 12:48:09;;;;;;;2.40;2.20;;;;;;;;;;5011197;28;20408;-76
2021/06/29 12:50:37;;;;;;;1.83;1.40;;;;;;;;;;5010987;28;20420;-75
2021/06/29 12:53:03;;;;;;;4.80;0.60;;;;;;;;;;5010112;28;20464;-77
2021/06/29 12:55:30;;;;;;;1.53;0.50;;;;;;;;;;5011710;28;20455;-75
2021/06/29 12:58:03;;;;;;;1.17;0.80;;;;;;;;;;5011777;28;21025;-76
2021/06/29 13:00:29;;;;;;;2.20;0.70;;;;;;;;;;5011276;28;20483;-75
2021/06/29 13:02:55;;;;;;;2.73;0.80;;;;;;;;;;5011496;28;20421;-74
2021/06/29 13:05:22;;;;;;;1.20;0.97;;;;;;;;;;5011836;28;20520;-74
2021/06/29 13:07:49;;;;;;;2.60;0.83;;;;;;;;;;5011238;28;20433;-76
2021/06/29 13:10:15;;;;;;;1.00;0.60;;;;;;;;;;5011407;28;20420;-75
2021/06/29 13:12:41;;;;;;;2.40;0.53;;;;;;;;;;5011143;28;20428;-75
2021/06/29 13:15:09;;;;;;;1.50;1.20;;;;;;;;;;5011268;28;20447;-77
2021/06/29 13:17:55;;;;;;;0.70;0.70;;;;;;;;;;5009319;28;20429;-76
2021/06/29 13:20:24;;;;;;;4.50;1.00;;;;;;;;;;5009380;28;20514;-81
2021/06/29 13:22:53;;;;;;;1.60;0.50;;;;;;;;;;5011796;28;20421;-82
2021/06/29 13:25:26;;;;;;;0.87;0.60;;;;;;;;;;5011931;28;20412;-79
2021/06/29 13:27:52;;;;;;;1.17;0.50;;;;;;;;;;5011535;28;20428;-73
2021/06/29 13:30:18;;;;;;;2.40;1.10;;;;;;;;;;5011307;28;20547;-75
2021/06/29 13:32:50;;;;;;;2.00;1.27;;;;;;;;;;5002993;28;20923;-71
2021/06/29 13:35:18;;;;;;;1.30;1.00;;;;;;;;;;4998572;28;20440;-71
2021/06/29 13:37:45;;;;;;;2.90;1.20;;;;;;;;;;5008669;28;20487;-71
2021/06/29 13:40:14;;;;;;;1.83;1.30;;;;;;;;;;5009477;28;20469;-73
2021/06/29 13:42:41;;;;;;;2.43;1.30;;;;;;;;;;5009167;28;20758;-70
2021/06/29 13:45:08;;;;;;;2.63;1.03;;;;;;;;;;5010137;28;20526;-71
2021/06/29 13:47:46;;;;;;;1.60;1.17;;;;;;;;;;5010482;28;20551;-72
2021/06/29 13:50:12;;;;;;;3.07;1.33;;;;;;;;;;5010654;28;20898;-69
2021/06/29 13:52:52;;;;;;;3.10;1.30;;;;;;;;;;5010657;28;20412;-69
2021/06/29 13:55:18;;;;;;;2.60;0.80;;;;;;;;;;5010913;28;20432;-70
2021/06/29 13:57:44;;;;;;;0.50;0.50;;;;;;;;;;5010617;28;20405;-72
2021/06/29 14:00:31;;;;;;;1.63;0.97;;;;;;;;;;5010618;28;20476;-70
2021/06/29 14:03:03;;;;;;;1.00;0.90;;;;;;;;;;5010627;28;20460;-70
2021/06/29 14:05:35;;;;;;;0.97;0.53;;;;;;;;;;5011049;28;20778;-71
2021/06/29 14:08:21;;;;;;;1.80;0.70;;;;;;;;;;5010773;28;20416;-76
2021/06/29 14:11:02;;;;;;;1.70;1.07;;;;;;;;;;5009770;28;20495;-76
2021/06/29 14:13:28;;;;;;;1.73;1.10;;;;;;;;;;5010061;28;20428;-69
2021/06/29 14:15:54;;;;;;;0.60;0.60;;;;;;;;;;5009810;28;20433;-69
2021/06/29 14:18:22;;;;;;;1.20;0.70;;;;;;;;;;5001595;28;20864;-69
2021/06/29 14:20:48;;;;;;;1.93;0.77;;;;;;;;;;5009741;28;20476;-69
2021/06/29 14:23:14;;;;;;;1.07;0.80;;;;;;;;;;5009684;28;20424;-71
2021/06/29 14:25:40;;;;;;;0.80;0.73;;;;;;;;;;5008465;28;21065;-71
2021/06/29 14:28:06;;;;;;;1.77;0.93;;;;;;;;;;5012420;28;20435;-71
2021/06/29 14:30:32;;;;;;;1.33;1.10;;;;;;;;;;5011653;28;20464;-69
2021/06/29 14:32:58;;;;;;;0.83;0.70;;;;;;;;;;5009927;28;20494;-69
2021/06/29 14:35:28;;;;;;;1.13;0.97;;;;;;;;;;5011380;28;20416;-70
2021/06/29 14:37:55;;;;;;;1.03;0.70;;;;;;;;;;5009810;28;20934;-71
2021/06/29 14:40:21;;;;;;;1.10;0.97;;;;;;;;;;5009925;28;20507;-72
2021/06/29 14:42:47;;;;;;;1.50;0.83;;;;;;;;;;5010901;28;20888;-71
2021/06/29 14:45:16;;;;;;;3.33;1.30;;;;;;;;;;5011070;28;20420;-70
2021/06/29 14:47:43;;;;;;;1.87;1.00;;;;;;;;;;5010854;28;20417;-70
2021/06/29 14:50:10;;;;;;;2.23;1.03;;;;;;;;;;5006509;28;20464;-72
2021/06/29 14:52:36;;;;;;;3.33;1.07;;;;;;;;;;5008858;28;20461;-71
2021/06/29 14:58:05;;;;;;;1.77;1.50;;;;;;;;;;5009610;28;20462;-72
2021/06/29 15:00:31;;;;;;;2.73;1.43;;;;;;;;;;5009188;28;20468;-72
2021/06/29 15:02:58;;;;;;;3.63;1.60;;;;;;;;;;5009293;28;20417;-72
2021/06/29 15:05:24;;;;;;;2.50;1.20;;;;;;;;;;5008864;28;20440;-72
2021/06/29 15:07:51;;;;;;;1.23;1.00;;;;;;;;;;5008969;28;20493;-73
2021/06/29 15:13:21;;;;;;;3.60;1.00;;;;;;;;;;5010904;28;20483;-73
2021/06/29 15:15:47;;;;;;;2.17;1.27;;;;;;;;;;5010091;28;20500;-70
2021/06/29 15:18:13;;;;;;;1.73;1.60;;;;;;;;;;5011722;28;20442;-80
2021/06/29 15:20:40;;;;;;;0.70;0.70;;;;;;;;;;5010843;28;21066;-76
2021/06/29 15:23:06;;;;;;;0.90;0.70;;;;;;;;;;5011337;28;20424;-77
2021/06/29 15:28:36;;;;;;;2.43;0.87;;;;;;;;;;5011345;28;21086;-78
2021/06/29 15:31:03;;;;;;;1.57;1.10;;;;;;;;;;5010938;28;20420;-78
2021/06/29 15:33:29;;;;;;;2.50;1.50;;;;;;;;;;5012003;28;20500;-75
2021/06/29 15:35:55;;;;;;;1.93;1.70;;;;;;;;;;5010722;28;20487;-80
2021/06/29 15:38:21;;;;;;;2.00;1.30;;;;;;;;;;5009287;28;20919;-79
2021/06/29 15:43:51;;;;;;;2.70;1.53;;;;;;;;;;5011935;28;20479;-79
2021/06/29 15:46:17;;;;;;;4.00;2.20;;;;;;;;;;5011029;28;20413;-82
2021/06/29 15:48:43;;;;;;;3.90;2.20;;;;;;;;;;5011024;28;20423;-76
2021/06/29 15:51:09;;;;;;;4.00;2.93;;;;;;;;;;5010451;28;20876;-76
2021/06/29 15:53:36;;;;;;;4.40;4.00;;;;;;;;;;5011350;28;20715;-77
2021/06/29 15:56:02;;;;;;;2.67;2.30;;;;;;;;;;5010728;28;20401;-76
2021/06/29 15:58:28;;;;;;;2.63;1.97;;;;;;;;;;5010771;28;20421;-78
2021/06/29 16:00:54;;;;;;;2.13;1.43;;;;;;;;;;5010491;28;20545;-75
2021/06/29 16:03:20;;;;;;;1.97;1.43;;;;;;;;;;5011084;28;20419;-80
2021/06/29 16:05:46;;;;;;;1.20;1.10;;;;;;;;;;5010321;28;20431;-72
2021/06/29 16:08:12;;;;;;;1.23;1.07;;;;;;;;;;5009888;28;20412;-75
2021/06/29 16:13:42;;;;;;;1.07;0.93;;;;;;;;;;5009393;28;20479;-75
2021/06/29 16:16:09;;;;;;;1.53;0.93;;;;;;;;;;5009294;28;20412;-73
2021/06/29 16:18:39;;;;;;;1.67;0.70;;;;;;;;;;5009674;28;20413;-75
2021/06/29 16:21:06;;;;;;;0.77;0.63;;;;;;;;;;5008134;28;20452;-74
2021/06/29 16:23:32;;;;;;;1.10;1.00;;;;;;;;;;5009026;28;20815;-72
2021/06/29 16:29:03;;;;;;;1.40;1.07;;;;;;;;;;5009245;28;20549;-74
2021/06/29 16:31:30;;;;;;;0.80;0.80;;;;;;;;;;5007972;28;20499;-75
2021/06/29 16:33:56;;;;;;;0.80;0.80;;;;;;;;;;5009716;28;20429;-74
2021/06/29 16:36:22;;;;;;;0.90;0.90;;;;;;;;;;5008607;28;20482;-74
2021/06/29 16:38:50;;;;;;;0.80;0.80;;;;;;;;;;5009799;28;20471;-75
2021/06/29 16:44:25;;;;;;;1.40;1.10;;;;;;;;;;5008963;28;20858;-74
2021/06/29 16:46:51;;;;;;;1.43;0.90;;;;;;;;;;5007981;28;20417;-74
2021/06/29 16:49:19;;;;;;;1.80;1.03;;;;;;;;;;5009165;28;20748;-74
2021/06/29 16:51:45;;;;;;;2.10;1.00;;;;;;;;;;5009022;28;20844;-73